sensor_id;sensor_type;location;lat;lon;timestamp;P1;durP1;ratioP1;P2;durP2;ratioP2
14121;SDS011;7139;48.114;11.442;2024-01-11T00:02:13;32.17;;;19.53;;
14121;SDS011;7139;48.114;11.442;2024-01-11T00:04:40;34.47;;;20.30;;
14121;SDS011;7139;48.114;11.442;2024-01-11T00:07:08;35.70;;;20.17;;
14121;SDS011;7139;48.114;11.442;2024-01-11T00:09:39;37.07;;;20.00;;
14121;SDS011;7139;48.114;11.442;2024-01-11T00:12:06;35.77;;;18.87;;
14121;SDS011;7139;48.114;11.442;2024-01-11T00:14:33;36.93;;;19.67;;
14121;SDS011;7139;48.114;11.442;2024-01-11T00:17:01;38.20;;;20.43;;
14121;SDS011;7139;48.114;11.442;2024-01-11T00:19:28;34.17;;;19.50;;
14121;SDS011;7139;48.114;11.442;2024-01-11T00:21:55;34.37;;;18.43;;
14121;SDS011;7139;48.114;11.442;2024-01-11T00:24:22;33.60;;;18.70;;
14121;SDS011;7139;48.114;11.442;2024-01-11T00:26:50;34.93;;;19.60;;
14121;SDS011;7139;48.114;11.442;2024-01-11T00:29:18;35.03;;;19.83;;
14121;SDS011;7139;48.114;11.442;2024-01-11T00:31:45;36.40;;;19.63;;
14121;SDS011;7139;48.114;11.442;2024-01-11T00:34:12;34.10;;;19.30;;
14121;SDS011;7139;48.114;11.442;2024-01-11T00:36:39;33.20;;;19.63;;
14121;SDS011;7139;48.114;11.442;2024-01-11T00:39:06;34.50;;;19.13;;
14121;SDS011;7139;48.114;11.442;2024-01-11T00:41:34;33.90;;;19.07;;
14121;SDS011;7139;48.114;11.442;2024-01-11T00:44:02;35.73;;;19.63;;
14121;SDS011;7139;48.114;11.442;2024-01-11T00:46:29;34.47;;;19.60;;
14121;SDS011;7139;48.114;11.442;2024-01-11T00:48:57;35.97;;;19.10;;
14121;SDS011;7139;48.114;11.442;2024-01-11T00:51:24;37.87;;;19.73;;
14121;SDS011;7139;48.114;11.442;2024-01-11T00:53:51;38.27;;;20.50;;
14121;SDS011;7139;48.114;11.442;2024-01-11T00:56:18;38.00;;;20.17;;
14121;SDS011;7139;48.114;11.442;2024-01-11T00:58:46;40.50;;;21.70;;
14121;SDS011;7139;48.114;11.442;2024-01-11T01:01:22;39.47;;;20.47;;
14121;SDS011;7139;48.114;11.442;2024-01-11T01:03:49;37.37;;;19.83;;
14121;SDS011;7139;48.114;11.442;2024-01-11T01:06:16;39.93;;;20.17;;
14121;SDS011;7139;48.114;11.442;2024-01-11T01:08:43;38.23;;;21.43;;
14121;SDS011;7139;48.114;11.442;2024-01-11T01:11:10;38.97;;;20.73;;
14121;SDS011;7139;48.114;11.442;2024-01-11T01:13:37;39.63;;;21.40;;
14121;SDS011;7139;48.114;11.442;2024-01-11T01:16:04;39.30;;;20.57;;
14121;SDS011;7139;48.114;11.442;2024-01-11T01:18:33;38.80;;;20.60;;
14121;SDS011;7139;48.114;11.442;2024-01-11T01:21:00;40.37;;;20.90;;
14121;SDS011;7139;48.114;11.442;2024-01-11T01:23:27;42.07;;;20.57;;
14121;SDS011;7139;48.114;11.442;2024-01-11T01:25:54;38.77;;;19.47;;
14121;SDS011;7139;48.114;11.442;2024-01-11T01:28:21;39.07;;;20.03;;
14121;SDS011;7139;48.114;11.442;2024-01-11T01:30:48;40.17;;;21.00;;
14121;SDS011;7139;48.114;11.442;2024-01-11T01:33:15;38.23;;;20.33;;
14121;SDS011;7139;48.114;11.442;2024-01-11T01:35:44;40.67;;;20.83;;
14121;SDS011;7139;48.114;11.442;2024-01-11T01:38:11;38.30;;;20.03;;
14121;SDS011;7139;48.114;11.442;2024-01-11T01:40:38;37.60;;;20.80;;
14121;SDS011;7139;48.114;11.442;2024-01-11T01:43:06;39.13;;;20.73;;
14121;SDS011;7139;48.114;11.442;2024-01-11T01:45:33;37.33;;;20.27;;
14121;SDS011;7139;48.114;11.442;2024-01-11T01:48:01;36.63;;;19.43;;
14121;SDS011;7139;48.114;11.442;2024-01-11T01:50:28;36.37;;;19.40;;
14121;SDS011;7139;48.114;11.442;2024-01-11T01:52:56;40.30;;;20.27;;
14121;SDS011;7139;48.114;11.442;2024-01-11T01:55:25;34.97;;;19.73;;
14121;SDS011;7139;48.114;11.442;2024-01-11T01:57:52;40.53;;;20.83;;
14121;SDS011;7139;48.114;11.442;2024-01-11T02:00:19;38.40;;;20.67;;
14121;SDS011;7139;48.114;11.442;2024-01-11T02:02:49;39.40;;;21.37;;
14121;SDS011;7139;48.114;11.442;2024-01-11T02:05:17;42.47;;;20.57;;
14121;SDS011;7139;48.114;11.442;2024-01-11T02:07:44;43.43;;;21.50;;
14121;SDS011;7139;48.114;11.442;2024-01-11T02:10:13;36.60;;;20.27;;
14121;SDS011;7139;48.114;11.442;2024-01-11T02:12:40;40.30;;;21.63;;
14121;SDS011;7139;48.114;11.442;2024-01-11T02:15:08;39.77;;;20.33;;
14121;SDS011;7139;48.114;11.442;2024-01-11T02:17:35;38.30;;;20.53;;
14121;SDS011;7139;48.114;11.442;2024-01-11T02:20:02;42.57;;;21.63;;
14121;SDS011;7139;48.114;11.442;2024-01-11T02:22:32;41.67;;;20.43;;
14121;SDS011;7139;48.114;11.442;2024-01-11T02:25:00;42.80;;;21.13;;
14121;SDS011;7139;48.114;11.442;2024-01-11T02:27:27;39.50;;;21.20;;
14121;SDS011;7139;48.114;11.442;2024-01-11T02:29:54;44.90;;;21.10;;
14121;SDS011;7139;48.114;11.442;2024-01-11T02:32:22;43.57;;;20.93;;
14121;SDS011;7139;48.114;11.442;2024-01-11T02:34:49;41.70;;;20.97;;
14121;SDS011;7139;48.114;11.442;2024-01-11T02:37:16;44.00;;;22.43;;
14121;SDS011;7139;48.114;11.442;2024-01-11T02:39:43;39.63;;;20.37;;
14121;SDS011;7139;48.114;11.442;2024-01-11T02:42:11;43.63;;;20.93;;
14121;SDS011;7139;48.114;11.442;2024-01-11T02:44:38;42.73;;;22.23;;
14121;SDS011;7139;48.114;11.442;2024-01-11T02:47:06;40.07;;;20.63;;
14121;SDS011;7139;48.114;11.442;2024-01-11T02:49:33;42.00;;;20.97;;
14121;SDS011;7139;48.114;11.442;2024-01-11T02:52:00;39.97;;;19.87;;
14121;SDS011;7139;48.114;11.442;2024-01-11T02:54:27;37.20;;;20.03;;
14121;SDS011;7139;48.114;11.442;2024-01-11T02:56:54;40.33;;;18.93;;
14121;SDS011;7139;48.114;11.442;2024-01-11T02:59:23;37.63;;;19.57;;
14121;SDS011;7139;48.114;11.442;2024-01-11T03:01:50;40.77;;;20.30;;
14121;SDS011;7139;48.114;11.442;2024-01-11T03:04:18;42.03;;;20.23;;
14121;SDS011;7139;48.114;11.442;2024-01-11T03:06:45;40.03;;;20.03;;
14121;SDS011;7139;48.114;11.442;2024-01-11T03:09:12;40.20;;;20.73;;
14121;SDS011;7139;48.114;11.442;2024-01-11T03:11:39;37.70;;;20.17;;
14121;SDS011;7139;48.114;11.442;2024-01-11T03:14:06;39.60;;;20.53;;
14121;SDS011;7139;48.114;11.442;2024-01-11T03:16:35;38.97;;;21.03;;
14121;SDS011;7139;48.114;11.442;2024-01-11T03:19:02;39.00;;;20.30;;
14121;SDS011;7139;48.114;11.442;2024-01-11T03:21:29;41.83;;;20.23;;
14121;SDS011;7139;48.114;11.442;2024-01-11T03:23:56;38.17;;;20.37;;
14121;SDS011;7139;48.114;11.442;2024-01-11T03:26:24;39.27;;;21.07;;
14121;SDS011;7139;48.114;11.442;2024-01-11T03:28:52;38.70;;;21.03;;
14121;SDS011;7139;48.114;11.442;2024-01-11T03:31:19;40.53;;;21.00;;
14121;SDS011;7139;48.114;11.442;2024-01-11T03:33:47;39.77;;;20.87;;
14121;SDS011;7139;48.114;11.442;2024-01-11T03:36:14;41.53;;;21.73;;
14121;SDS011;7139;48.114;11.442;2024-01-11T03:38:41;43.50;;;20.00;;
14121;SDS011;7139;48.114;11.442;2024-01-11T03:41:08;40.93;;;20.77;;
14121;SDS011;7139;48.114;11.442;2024-01-11T03:43:36;40.00;;;20.57;;
14121;SDS011;7139;48.114;11.442;2024-01-11T03:46:03;43.00;;;20.90;;
14121;SDS011;7139;48.114;11.442;2024-01-11T03:48:30;40.50;;;20.67;;
14121;SDS011;7139;48.114;11.442;2024-01-11T03:50:58;35.03;;;17.40;;
14121;SDS011;7139;48.114;11.442;2024-01-11T03:53:25;34.03;;;17.13;;
14121;SDS011;7139;48.114;11.442;2024-01-11T03:55:52;33.00;;;18.17;;
14121;SDS011;7139;48.114;11.442;2024-01-11T03:58:20;34.60;;;17.80;;
14121;SDS011;7139;48.114;11.442;2024-01-11T04:00:47;31.97;;;17.17;;
14121;SDS011;7139;48.114;11.442;2024-01-11T04:03:15;35.57;;;18.53;;
14121;SDS011;7139;48.114;11.442;2024-01-11T04:05:42;35.00;;;18.77;;
14121;SDS011;7139;48.114;11.442;2024-01-11T04:08:10;34.80;;;18.33;;
14121;SDS011;7139;48.114;11.442;2024-01-11T04:10:37;39.47;;;20.93;;
14121;SDS011;7139;48.114;11.442;2024-01-11T04:13:06;39.30;;;20.10;;
14121;SDS011;7139;48.114;11.442;2024-01-11T04:15:33;41.47;;;21.27;;
14121;SDS011;7139;48.114;11.442;2024-01-11T04:18:00;39.50;;;20.50;;
14121;SDS011;7139;48.114;11.442;2024-01-11T04:20:27;40.37;;;20.23;;
14121;SDS011;7139;48.114;11.442;2024-01-11T04:22:54;38.77;;;19.93;;
14121;SDS011;7139;48.114;11.442;2024-01-11T04:25:23;42.53;;;20.77;;
14121;SDS011;7139;48.114;11.442;2024-01-11T04:27:50;41.20;;;21.50;;
14121;SDS011;7139;48.114;11.442;2024-01-11T04:30:17;39.90;;;20.47;;
14121;SDS011;7139;48.114;11.442;2024-01-11T04:32:44;42.33;;;20.87;;
14121;SDS011;7139;48.114;11.442;2024-01-11T04:35:11;39.70;;;20.13;;
14121;SDS011;7139;48.114;11.442;2024-01-11T04:37:38;41.33;;;20.37;;
14121;SDS011;7139;48.114;11.442;2024-01-11T04:40:06;38.60;;;20.33;;
14121;SDS011;7139;48.114;11.442;2024-01-11T04:42:35;40.83;;;21.27;;
14121;SDS011;7139;48.114;11.442;2024-01-11T04:45:28;38.97;;;20.23;;
14121;SDS011;7139;48.114;11.442;2024-01-11T04:47:55;43.57;;;19.70;;
14121;SDS011;7139;48.114;11.442;2024-01-11T04:50:22;41.27;;;20.20;;
14121;SDS011;7139;48.114;11.442;2024-01-11T04:52:50;40.27;;;20.07;;
14121;SDS011;7139;48.114;11.442;2024-01-11T04:55:17;36.70;;;19.60;;
14121;SDS011;7139;48.114;11.442;2024-01-11T04:57:45;43.97;;;20.97;;
14121;SDS011;7139;48.114;11.442;2024-01-11T05:00:13;39.57;;;20.60;;
14121;SDS011;7139;48.114;11.442;2024-01-11T05:02:40;39.10;;;18.83;;
14121;SDS011;7139;48.114;11.442;2024-01-11T05:05:07;39.53;;;19.60;;
14121;SDS011;7139;48.114;11.442;2024-01-11T05:07:34;43.60;;;20.97;;
14121;SDS011;7139;48.114;11.442;2024-01-11T05:10:01;43.17;;;20.83;;
14121;SDS011;7139;48.114;11.442;2024-01-11T05:12:28;39.83;;;20.70;;
14121;SDS011;7139;48.114;11.442;2024-01-11T05:14:57;37.67;;;19.83;;
14121;SDS011;7139;48.114;11.442;2024-01-11T05:17:24;38.50;;;19.80;;
14121;SDS011;7139;48.114;11.442;2024-01-11T05:19:51;38.60;;;18.97;;
14121;SDS011;7139;48.114;11.442;2024-01-11T05:22:18;37.87;;;19.27;;
14121;SDS011;7139;48.114;11.442;2024-01-11T05:24:47;39.97;;;19.93;;
14121;SDS011;7139;48.114;11.442;2024-01-11T05:27:14;37.73;;;19.63;;
14121;SDS011;7139;48.114;11.442;2024-01-11T05:29:41;35.73;;;19.90;;
14121;SDS011;7139;48.114;11.442;2024-01-11T05:32:09;38.03;;;19.63;;
14121;SDS011;7139;48.114;11.442;2024-01-11T05:34:37;41.37;;;20.60;;
14121;SDS011;7139;48.114;11.442;2024-01-11T05:37:04;38.33;;;19.43;;
14121;SDS011;7139;48.114;11.442;2024-01-11T05:39:31;40.07;;;20.30;;
14121;SDS011;7139;48.114;11.442;2024-01-11T05:41:58;36.67;;;19.73;;
14121;SDS011;7139;48.114;11.442;2024-01-11T05:44:25;40.77;;;20.50;;
14121;SDS011;7139;48.114;11.442;2024-01-11T05:46:52;41.53;;;21.83;;
14121;SDS011;7139;48.114;11.442;2024-01-11T05:49:21;45.30;;;23.53;;
14121;SDS011;7139;48.114;11.442;2024-01-11T05:51:48;41.90;;;20.70;;
14121;SDS011;7139;48.114;11.442;2024-01-11T05:54:15;41.23;;;22.43;;
14121;SDS011;7139;48.114;11.442;2024-01-11T05:56:42;51.00;;;29.20;;
14121;SDS011;7139;48.114;11.442;2024-01-11T05:59:09;40.60;;;22.07;;
14121;SDS011;7139;48.114;11.442;2024-01-11T06:01:40;37.47;;;21.73;;
14121;SDS011;7139;48.114;11.442;2024-01-11T06:04:07;35.27;;;21.07;;
14121;SDS011;7139;48.114;11.442;2024-01-11T06:06:36;40.83;;;21.47;;
14121;SDS011;7139;48.114;11.442;2024-01-11T06:09:06;39.07;;;21.70;;
14121;SDS011;7139;48.114;11.442;2024-01-11T06:11:33;39.47;;;20.87;;
14121;SDS011;7139;48.114;11.442;2024-01-11T06:14:00;38.10;;;21.10;;
14121;SDS011;7139;48.114;11.442;2024-01-11T06:16:27;35.67;;;19.60;;
14121;SDS011;7139;48.114;11.442;2024-01-11T06:18:54;32.33;;;19.03;;
14121;SDS011;7139;48.114;11.442;2024-01-11T06:21:22;33.93;;;20.50;;
14121;SDS011;7139;48.114;11.442;2024-01-11T06:23:52;40.77;;;20.83;;
14121;SDS011;7139;48.114;11.442;2024-01-11T06:26:19;39.20;;;21.07;;
14121;SDS011;7139;48.114;11.442;2024-01-11T06:28:48;41.13;;;20.60;;
14121;SDS011;7139;48.114;11.442;2024-01-11T06:31:15;39.37;;;22.00;;
14121;SDS011;7139;48.114;11.442;2024-01-11T06:33:43;38.63;;;22.07;;
14121;SDS011;7139;48.114;11.442;2024-01-11T06:36:10;43.47;;;23.30;;
14121;SDS011;7139;48.114;11.442;2024-01-11T06:38:37;39.57;;;22.30;;
14121;SDS011;7139;48.114;11.442;2024-01-11T06:41:06;41.80;;;21.43;;
14121;SDS011;7139;48.114;11.442;2024-01-11T06:43:33;43.37;;;22.13;;
14121;SDS011;7139;48.114;11.442;2024-01-11T06:46:02;44.83;;;22.63;;
14121;SDS011;7139;48.114;11.442;2024-01-11T06:48:29;44.70;;;22.43;;
14121;SDS011;7139;48.114;11.442;2024-01-11T06:50:56;41.53;;;23.10;;
14121;SDS011;7139;48.114;11.442;2024-01-11T06:53:23;41.40;;;22.77;;
14121;SDS011;7139;48.114;11.442;2024-01-11T06:55:50;44.53;;;23.93;;
14121;SDS011;7139;48.114;11.442;2024-01-11T06:58:21;45.90;;;24.63;;
14121;SDS011;7139;48.114;11.442;2024-01-11T07:00:48;45.73;;;24.73;;
14121;SDS011;7139;48.114;11.442;2024-01-11T07:03:16;40.73;;;24.13;;
14121;SDS011;7139;48.114;11.442;2024-01-11T07:05:43;43.83;;;24.20;;
14121;SDS011;7139;48.114;11.442;2024-01-11T07:08:10;45.73;;;24.37;;
14121;SDS011;7139;48.114;11.442;2024-01-11T07:10:38;46.07;;;23.83;;
14121;SDS011;7139;48.114;11.442;2024-01-11T07:13:06;46.53;;;24.77;;
14121;SDS011;7139;48.114;11.442;2024-01-11T07:15:36;49.80;;;24.80;;
14121;SDS011;7139;48.114;11.442;2024-01-11T07:18:03;48.20;;;24.77;;
14121;SDS011;7139;48.114;11.442;2024-01-11T07:20:31;50.07;;;26.30;;
14121;SDS011;7139;48.114;11.442;2024-01-11T07:22:58;44.70;;;23.57;;
14121;SDS011;7139;48.114;11.442;2024-01-11T07:25:25;48.97;;;24.77;;
14121;SDS011;7139;48.114;11.442;2024-01-11T07:27:52;48.20;;;25.60;;
14121;SDS011;7139;48.114;11.442;2024-01-11T07:30:20;47.97;;;25.37;;
14121;SDS011;7139;48.114;11.442;2024-01-11T07:32:48;46.33;;;24.37;;
14121;SDS011;7139;48.114;11.442;2024-01-11T07:35:15;48.47;;;25.77;;
14121;SDS011;7139;48.114;11.442;2024-01-11T07:37:42;48.47;;;25.00;;
14121;SDS011;7139;48.114;11.442;2024-01-11T07:40:09;48.90;;;25.37;;
14121;SDS011;7139;48.114;11.442;2024-01-11T07:42:36;47.10;;;24.20;;
14121;SDS011;7139;48.114;11.442;2024-01-11T07:45:04;47.07;;;24.20;;
14121;SDS011;7139;48.114;11.442;2024-01-11T07:47:31;43.97;;;23.63;;
14121;SDS011;7139;48.114;11.442;2024-01-11T07:50:00;47.17;;;24.23;;
14121;SDS011;7139;48.114;11.442;2024-01-11T07:52:28;44.03;;;24.47;;
14121;SDS011;7139;48.114;11.442;2024-01-11T07:54:55;52.80;;;25.97;;
14121;SDS011;7139;48.114;11.442;2024-01-11T07:57:25;42.67;;;23.17;;
14121;SDS011;7139;48.114;11.442;2024-01-11T07:59:51;42.27;;;22.33;;
14121;SDS011;7139;48.114;11.442;2024-01-11T08:02:18;45.10;;;24.70;;
14121;SDS011;7139;48.114;11.442;2024-01-11T08:04:45;51.90;;;25.13;;
14121;SDS011;7139;48.114;11.442;2024-01-11T08:07:13;49.03;;;24.73;;
14121;SDS011;7139;48.114;11.442;2024-01-11T08:09:40;45.60;;;23.67;;
14121;SDS011;7139;48.114;11.442;2024-01-11T08:12:10;44.27;;;22.07;;
14121;SDS011;7139;48.114;11.442;2024-01-11T08:14:38;43.03;;;22.77;;
14121;SDS011;7139;48.114;11.442;2024-01-11T08:17:07;38.30;;;19.37;;
14121;SDS011;7139;48.114;11.442;2024-01-11T08:19:34;40.80;;;20.40;;
14121;SDS011;7139;48.114;11.442;2024-01-11T08:22:01;44.00;;;21.07;;
14121;SDS011;7139;48.114;11.442;2024-01-11T08:24:30;46.53;;;21.67;;
14121;SDS011;7139;48.114;11.442;2024-01-11T08:26:57;42.13;;;20.27;;
14121;SDS011;7139;48.114;11.442;2024-01-11T08:29:24;43.43;;;21.27;;
14121;SDS011;7139;48.114;11.442;2024-01-11T08:31:53;45.03;;;21.53;;
14121;SDS011;7139;48.114;11.442;2024-01-11T08:34:21;44.67;;;20.90;;
14121;SDS011;7139;48.114;11.442;2024-01-11T08:36:48;44.17;;;21.77;;
14121;SDS011;7139;48.114;11.442;2024-01-11T08:39:15;43.77;;;21.60;;
14121;SDS011;7139;48.114;11.442;2024-01-11T08:41:44;44.77;;;21.30;;
14121;SDS011;7139;48.114;11.442;2024-01-11T08:44:11;43.17;;;20.27;;
14121;SDS011;7139;48.114;11.442;2024-01-11T08:46:38;41.33;;;21.03;;
14121;SDS011;7139;48.114;11.442;2024-01-11T08:49:05;41.00;;;19.90;;
14121;SDS011;7139;48.114;11.442;2024-01-11T08:51:32;40.90;;;20.87;;
14121;SDS011;7139;48.114;11.442;2024-01-11T08:53:59;45.63;;;21.13;;
14121;SDS011;7139;48.114;11.442;2024-01-11T08:56:26;46.57;;;21.83;;
14121;SDS011;7139;48.114;11.442;2024-01-11T08:58:55;46.13;;;22.53;;
14121;SDS011;7139;48.114;11.442;2024-01-11T09:01:23;42.80;;;21.73;;
14121;SDS011;7139;48.114;11.442;2024-01-11T09:03:50;43.53;;;21.90;;
14121;SDS011;7139;48.114;11.442;2024-01-11T09:06:17;47.40;;;24.63;;
14121;SDS011;7139;48.114;11.442;2024-01-11T09:08:44;44.13;;;24.07;;
14121;SDS011;7139;48.114;11.442;2024-01-11T09:11:11;44.37;;;24.23;;
14121;SDS011;7139;48.114;11.442;2024-01-11T09:13:38;46.10;;;24.60;;
14121;SDS011;7139;48.114;11.442;2024-01-11T09:16:08;47.40;;;26.80;;
14121;SDS011;7139;48.114;11.442;2024-01-11T09:18:35;52.53;;;29.50;;
14121;SDS011;7139;48.114;11.442;2024-01-11T09:21:02;53.47;;;28.30;;
14121;SDS011;7139;48.114;11.442;2024-01-11T09:23:29;54.20;;;29.47;;
14121;SDS011;7139;48.114;11.442;2024-01-11T09:25:57;59.60;;;31.00;;
14121;SDS011;7139;48.114;11.442;2024-01-11T09:28:24;61.30;;;29.83;;
14121;SDS011;7139;48.114;11.442;2024-01-11T09:30:51;61.17;;;31.60;;
14121;SDS011;7139;48.114;11.442;2024-01-11T09:33:19;59.13;;;31.53;;
14121;SDS011;7139;48.114;11.442;2024-01-11T09:35:46;60.77;;;31.07;;
14121;SDS011;7139;48.114;11.442;2024-01-11T09:38:13;62.07;;;32.13;;
14121;SDS011;7139;48.114;11.442;2024-01-11T09:40:40;60.30;;;31.93;;
14121;SDS011;7139;48.114;11.442;2024-01-11T09:43:07;61.20;;;30.87;;
14121;SDS011;7139;48.114;11.442;2024-01-11T09:45:36;59.10;;;32.13;;
14121;SDS011;7139;48.114;11.442;2024-01-11T09:48:04;63.40;;;30.77;;
14121;SDS011;7139;48.114;11.442;2024-01-11T09:50:34;60.73;;;30.53;;
14121;SDS011;7139;48.114;11.442;2024-01-11T09:53:02;54.13;;;30.43;;
14121;SDS011;7139;48.114;11.442;2024-01-11T09:55:30;54.53;;;30.30;;
14121;SDS011;7139;48.114;11.442;2024-01-11T09:57:58;57.70;;;31.47;;
14121;SDS011;7139;48.114;11.442;2024-01-11T10:00:26;55.37;;;30.50;;
14121;SDS011;7139;48.114;11.442;2024-01-11T10:02:54;54.47;;;29.77;;
14121;SDS011;7139;48.114;11.442;2024-01-11T10:05:21;62.13;;;31.60;;
14121;SDS011;7139;48.114;11.442;2024-01-11T10:07:50;53.70;;;30.63;;
14121;SDS011;7139;48.114;11.442;2024-01-11T10:10:17;57.77;;;30.90;;
14121;SDS011;7139;48.114;11.442;2024-01-11T10:12:44;54.73;;;30.00;;
14121;SDS011;7139;48.114;11.442;2024-01-11T10:15:12;57.10;;;31.43;;
14121;SDS011;7139;48.114;11.442;2024-01-11T10:17:40;56.47;;;30.47;;
14121;SDS011;7139;48.114;11.442;2024-01-11T10:20:09;62.57;;;34.50;;
14121;SDS011;7139;48.114;11.442;2024-01-11T10:22:38;65.10;;;33.73;;
14121;SDS011;7139;48.114;11.442;2024-01-11T10:25:10;60.57;;;33.13;;
14121;SDS011;7139;48.114;11.442;2024-01-11T10:27:38;61.07;;;32.30;;
14121;SDS011;7139;48.114;11.442;2024-01-11T10:30:07;58.23;;;31.40;;
14121;SDS011;7139;48.114;11.442;2024-01-11T10:32:34;59.93;;;32.13;;
14121;SDS011;7139;48.114;11.442;2024-01-11T10:35:01;63.47;;;32.60;;
14121;SDS011;7139;48.114;11.442;2024-01-11T10:37:30;62.63;;;32.53;;
14121;SDS011;7139;48.114;11.442;2024-01-11T10:39:58;56.07;;;29.53;;
14121;SDS011;7139;48.114;11.442;2024-01-11T10:42:31;52.50;;;29.93;;
14121;SDS011;7139;48.114;11.442;2024-01-11T10:44:58;67.73;;;31.40;;
14121;SDS011;7139;48.114;11.442;2024-01-11T10:47:26;59.23;;;29.97;;
14121;SDS011;7139;48.114;11.442;2024-01-11T10:49:57;60.93;;;32.33;;
14121;SDS011;7139;48.114;11.442;2024-01-11T10:52:27;58.60;;;32.03;;
14121;SDS011;7139;48.114;11.442;2024-01-11T10:54:55;66.63;;;32.70;;
14121;SDS011;7139;48.114;11.442;2024-01-11T10:57:24;65.43;;;32.53;;
14121;SDS011;7139;48.114;11.442;2024-01-11T10:59:52;60.27;;;31.30;;
14121;SDS011;7139;48.114;11.442;2024-01-11T11:02:20;58.37;;;31.10;;
14121;SDS011;7139;48.114;11.442;2024-01-11T11:04:49;68.00;;;33.70;;
14121;SDS011;7139;48.114;11.442;2024-01-11T11:07:18;65.73;;;33.03;;
14121;SDS011;7139;48.114;11.442;2024-01-11T11:09:45;56.30;;;30.00;;
14121;SDS011;7139;48.114;11.442;2024-01-11T11:12:13;63.60;;;31.67;;
14121;SDS011;7139;48.114;11.442;2024-01-11T11:14:40;61.70;;;31.60;;
14121;SDS011;7139;48.114;11.442;2024-01-11T11:17:10;63.70;;;32.00;;
14121;SDS011;7139;48.114;11.442;2024-01-11T11:19:37;59.10;;;30.70;;
14121;SDS011;7139;48.114;11.442;2024-01-11T11:22:05;58.30;;;31.07;;
14121;SDS011;7139;48.114;11.442;2024-01-11T11:24:33;60.00;;;32.17;;
14121;SDS011;7139;48.114;11.442;2024-01-11T11:27:01;59.83;;;30.97;;
14121;SDS011;7139;48.114;11.442;2024-01-11T11:29:28;58.33;;;31.20;;
14121;SDS011;7139;48.114;11.442;2024-01-11T11:31:55;56.77;;;29.93;;
14121;SDS011;7139;48.114;11.442;2024-01-11T11:37:07;59.57;;;30.00;;
14121;SDS011;7139;48.114;11.442;2024-01-11T11:39:35;58.90;;;31.37;;
14121;SDS011;7139;48.114;11.442;2024-01-11T11:42:03;57.60;;;30.30;;
14121;SDS011;7139;48.114;11.442;2024-01-11T11:44:30;56.40;;;29.60;;
14121;SDS011;7139;48.114;11.442;2024-01-11T11:50:02;56.80;;;29.33;;
14121;SDS011;7139;48.114;11.442;2024-01-11T11:52:31;51.43;;;27.73;;
14121;SDS011;7139;48.114;11.442;2024-01-11T11:54:59;49.43;;;27.40;;
14121;SDS011;7139;48.114;11.442;2024-01-11T11:57:27;50.17;;;27.27;;
14121;SDS011;7139;48.114;11.442;2024-01-11T11:59:55;59.70;;;30.00;;
14121;SDS011;7139;48.114;11.442;2024-01-11T12:02:23;64.80;;;33.63;;
14121;SDS011;7139;48.114;11.442;2024-01-11T12:04:50;57.50;;;30.93;;
14121;SDS011;7139;48.114;11.442;2024-01-11T12:07:17;56.57;;;30.80;;
14121;SDS011;7139;48.114;11.442;2024-01-11T12:09:46;57.53;;;30.47;;
14121;SDS011;7139;48.114;11.442;2024-01-11T12:12:13;59.23;;;30.53;;
14121;SDS011;7139;48.114;11.442;2024-01-11T12:14:41;59.03;;;30.10;;
14121;SDS011;7139;48.114;11.442;2024-01-11T12:17:08;62.43;;;29.97;;
14121;SDS011;7139;48.114;11.442;2024-01-11T12:19:35;59.70;;;30.97;;
14121;SDS011;7139;48.114;11.442;2024-01-11T12:22:02;59.50;;;30.33;;
14121;SDS011;7139;48.114;11.442;2024-01-11T12:24:30;56.40;;;29.33;;
14121;SDS011;7139;48.114;11.442;2024-01-11T12:26:59;53.97;;;28.60;;
14121;SDS011;7139;48.114;11.442;2024-01-11T12:29:28;53.17;;;28.40;;
14121;SDS011;7139;48.114;11.442;2024-01-11T12:31:56;57.53;;;29.07;;
14121;SDS011;7139;48.114;11.442;2024-01-11T12:34:23;53.97;;;29.90;;
14121;SDS011;7139;48.114;11.442;2024-01-11T12:36:51;56.60;;;29.73;;
14121;SDS011;7139;48.114;11.442;2024-01-11T12:39:19;60.67;;;30.13;;
14121;SDS011;7139;48.114;11.442;2024-01-11T12:41:48;55.73;;;30.07;;
14121;SDS011;7139;48.114;11.442;2024-01-11T12:44:16;55.80;;;30.70;;
14121;SDS011;7139;48.114;11.442;2024-01-11T12:46:44;58.57;;;30.93;;
14121;SDS011;7139;48.114;11.442;2024-01-11T12:49:11;57.27;;;29.97;;
14121;SDS011;7139;48.114;11.442;2024-01-11T12:51:38;54.00;;;28.53;;
14121;SDS011;7139;48.114;11.442;2024-01-11T12:54:08;57.90;;;30.77;;
14121;SDS011;7139;48.114;11.442;2024-01-11T12:56:39;51.20;;;28.43;;
14121;SDS011;7139;48.114;11.442;2024-01-11T12:59:07;52.47;;;28.43;;
14121;SDS011;7139;48.114;11.442;2024-01-11T13:01:36;53.13;;;29.20;;
14121;SDS011;7139;48.114;11.442;2024-01-11T13:04:03;54.80;;;28.73;;
14121;SDS011;7139;48.114;11.442;2024-01-11T13:06:31;52.87;;;29.80;;
14121;SDS011;7139;48.114;11.442;2024-01-11T13:08:59;57.00;;;30.13;;
14121;SDS011;7139;48.114;11.442;2024-01-11T13:11:26;55.17;;;30.80;;
14121;SDS011;7139;48.114;11.442;2024-01-11T13:13:53;53.53;;;29.07;;
14121;SDS011;7139;48.114;11.442;2024-01-11T13:16:22;53.93;;;28.47;;
14121;SDS011;7139;48.114;11.442;2024-01-11T13:18:52;54.20;;;30.20;;
14121;SDS011;7139;48.114;11.442;2024-01-11T13:21:19;53.40;;;28.87;;
14121;SDS011;7139;48.114;11.442;2024-01-11T13:23:47;55.67;;;28.93;;
14121;SDS011;7139;48.114;11.442;2024-01-11T13:26:14;48.90;;;28.07;;
14121;SDS011;7139;48.114;11.442;2024-01-11T13:28:41;56.00;;;30.33;;
14121;SDS011;7139;48.114;11.442;2024-01-11T13:31:08;57.93;;;30.83;;
14121;SDS011;7139;48.114;11.442;2024-01-11T13:33:36;54.13;;;30.37;;
14121;SDS011;7139;48.114;11.442;2024-01-11T13:36:05;54.20;;;29.53;;
14121;SDS011;7139;48.114;11.442;2024-01-11T13:38:33;53.97;;;29.50;;
14121;SDS011;7139;48.114;11.442;2024-01-11T13:41:00;53.77;;;30.37;;
14121;SDS011;7139;48.114;11.442;2024-01-11T13:43:27;50.30;;;28.07;;
14121;SDS011;7139;48.114;11.442;2024-01-11T13:45:54;55.77;;;29.40;;
14121;SDS011;7139;48.114;11.442;2024-01-11T13:48:21;57.10;;;29.83;;
14121;SDS011;7139;48.114;11.442;2024-01-11T13:50:49;57.73;;;30.00;;
14121;SDS011;7139;48.114;11.442;2024-01-11T13:53:17;55.17;;;29.47;;
14121;SDS011;7139;48.114;11.442;2024-01-11T13:55:44;50.73;;;28.03;;
14121;SDS011;7139;48.114;11.442;2024-01-11T13:58:12;52.00;;;27.97;;
14121;SDS011;7139;48.114;11.442;2024-01-11T14:00:40;50.30;;;28.80;;
14121;SDS011;7139;48.114;11.442;2024-01-11T14:03:07;55.80;;;28.77;;
14121;SDS011;7139;48.114;11.442;2024-01-11T14:05:35;54.10;;;29.27;;
14121;SDS011;7139;48.114;11.442;2024-01-11T14:08:03;53.70;;;29.40;;
14121;SDS011;7139;48.114;11.442;2024-01-11T14:10:35;62.67;;;30.57;;
14121;SDS011;7139;48.114;11.442;2024-01-11T14:13:02;56.43;;;29.83;;
14121;SDS011;7139;48.114;11.442;2024-01-11T14:15:29;51.17;;;29.27;;
14121;SDS011;7139;48.114;11.442;2024-01-11T14:17:57;53.07;;;29.50;;
14121;SDS011;7139;48.114;11.442;2024-01-11T14:20:24;55.07;;;29.87;;
14121;SDS011;7139;48.114;11.442;2024-01-11T14:22:51;59.30;;;30.47;;
14121;SDS011;7139;48.114;11.442;2024-01-11T14:25:18;59.17;;;33.57;;
14121;SDS011;7139;48.114;11.442;2024-01-11T14:27:47;54.80;;;31.00;;
14121;SDS011;7139;48.114;11.442;2024-01-11T14:30:14;50.37;;;30.07;;